This is the latest recevied weather packets stored in our database for station/object KI6SYE. If no packets are shown the sender has not sent any weather packets the latest 1 day(s).
| Time | Temp. | Humidity | Pressure | Rain* | Wind** | Luminosity | Snow |
|---|---|---|---|---|---|---|---|
| 1836274645 | 20° C | 91% | 1012.6 hPa | 0 mm | 2.68 m/s, 236° | 0 W/m² | - |
| 1836274498 | 20° C | 91% | 1012.5 hPa | 0 mm | 0.89 m/s, 337° | 0 W/m² | - |
| 1836274343 | 20° C | 90% | 1012.6 hPa | 0 mm | 1.79 m/s, 296° | 0 W/m² | - |
| 1836274197 | 20° C | 91% | 1012.7 hPa | 0 mm | 2.24 m/s, 269° | 0 W/m² | - |
| 1836274042 | 20° C | 90% | 1012.7 hPa | 0 mm | 3.13 m/s, 247° | 0 W/m² | - |
| 1778032792 | 16.67° C | 80% | 1014.3 hPa | 0 mm | 1.34 m/s, 250° | 40 W/m² | - |
| 1778032489 | 16.67° C | 80% | 1014.3 hPa | 0 mm | 2.24 m/s, 229° | 52 W/m² | - |
| 1778032186 | 16.67° C | 79% | 1014.2 hPa | 0 mm | 2.24 m/s, 264° | 59 W/m² | - |
| 1778031883 | 17.22° C | 78% | 1014.2 hPa | 0 mm | 2.68 m/s, 259° | 72 W/m² | - |
| 1778031579 | 16.67° C | 77% | 1014.5 hPa | 0 mm | 0.89 m/s, 233° | 92 W/m² | - |
| 1778031277 | 16.11° C | 79% | 1014.1 hPa | 0 mm | 1.34 m/s, 252° | 80 W/m² | - |
| 1778030974 | 16.11° C | 79% | 1014.3 hPa | 0 mm | 1.79 m/s, 219° | 69 W/m² | - |
| 1778030670 | 16.11° C | 78% | 1014 hPa | 0 mm | 1.79 m/s, 251° | 68 W/m² | - |
| 1778030367 | 16.11° C | 78% | 1014.3 hPa | 0 mm | 1.79 m/s, 206° | 65 W/m² | - |
| 1778030065 | 16.11° C | 78% | 1014.3 hPa | 0 mm | 2.24 m/s, 255° | 72 W/m² | - |
| 1778029761 | 16.11° C | 79% | 1014 hPa | 0 mm | 1.79 m/s, 223° | 71 W/m² | - |
| 1778029460 | 16.11° C | 79% | 1014.4 hPa | 0 mm | 1.34 m/s, 280° | 68 W/m² | - |
| 1778029156 | 16.67° C | 79% | 1014.4 hPa | 0 mm | 1.79 m/s, 257° | 67 W/m² | - |
| 1778028854 | 16.67° C | 79% | 1014.4 hPa | 0 mm | 2.24 m/s, 236° | 65 W/m² | - |
| 1778028549 | 16.67° C | 77% | 1014.3 hPa | 0 mm | 1.34 m/s, 294° | 62 W/m² | - |
| 1778028247 | 16.67° C | 78% | 1014.2 hPa | 0 mm | 2.24 m/s, 229° | 70 W/m² | - |
| 1778027943 | 16.67° C | 78% | 1014.1 hPa | 0 mm | 1.79 m/s, 225° | 113 W/m² | - |
| 1778027639 | 17.22° C | 76% | 1014.3 hPa | 0 mm | 3.13 m/s, 245° | 107 W/m² | - |
| 1778027336 | 17.22° C | 75% | 1014.2 hPa | 0 mm | 1.34 m/s, 296° | 133 W/m² | - |
| 1778027032 | 17.78° C | 75% | 1014.2 hPa | 0 mm | 1.79 m/s, 259° | 358 W/m² | - |
* Rain latest hour (hover to see other rain measurements)
** Current wind speed in m/s (hover to see current wind gust speed)